Time;durP1;ratioP1;P1;durP2;ratioP2;P2;SDS_P1;SDS_P2;PMS_P1;PMS_P2;Temp;Humidity;BMP_temperature;BMP_pressure;BME280_temperature;BME280_humidity;BME280_pressure;Samples;Min_cycle;Max_cycle;Signal;HPM_P1;HPM_P2
2023/05/05 05:16:15;;;;;;;7.07;3.40;;;12.30;99.90;;;;;;5173575;27;20756;-76
2023/05/05 05:36:10;;;;;;;4.57;2.70;;;12.60;99.90;;;;;;5130189;27;20275;-76
2023/05/05 05:41:39;;;;;;;3.87;3.10;;;13.00;99.90;;;;;;5131548;27;20275;-76
2023/05/05 05:49:45;;;;;;;5.80;3.30;;;13.50;99.90;;;;;;5173964;27;20272;-76
2023/05/05 05:58:18;;;;;;;3.47;2.77;;;;;;;;;;5131829;27;20287;-76
2023/05/05 06:03:42;;;;;;;5.70;2.97;;;13.90;99.90;;;;;;5132957;27;20267;-77
2023/05/05 06:09:40;;;;;;;7.20;2.40;;;14.30;99.90;;;;;;5131700;27;20271;-77
2023/05/05 06:15:26;;;;;;;4.73;2.53;;;14.80;99.90;;;;;;5131321;27;20271;-76
2023/05/05 06:20:02;;;;;;;2.77;2.47;;;15.00;99.90;;;;;;5130667;27;20278;-76
2023/05/05 06:24:52;;;;;;;6.70;2.70;;;15.30;99.90;;;;;;5130842;27;20268;-77
2023/05/05 06:29:44;;;;;;;6.60;2.23;;;15.50;99.90;;;;;;5130726;27;20263;-77
2023/05/05 06:34:37;;;;;;;7.27;2.33;;;15.70;99.90;;;;;;5132105;27;20767;-77
2023/05/05 06:38:27;;;;;;;3.93;2.60;;;15.90;99.90;;;;;;5131766;27;20285;-77
2023/05/05 06:42:23;;;;;;;3.50;2.30;;;16.10;99.90;;;;;;5132883;27;20269;-77
2023/05/05 06:46:19;;;;;;;5.97;2.67;;;;;;;;;;5132714;27;20318;-76
2023/05/05 06:50:15;;;;;;;3.60;2.07;;;19.10;99.90;;;;;;5132068;27;20267;-77
2023/05/05 06:54:11;;;;;;;3.80;2.60;;;16.70;99.90;;;;;;5132502;27;20277;-77
2023/05/05 06:58:09;;;;;;;5.23;2.27;;;16.90;99.90;;;;;;5132370;27;20287;-77
2023/05/05 07:02:02;;;;;;;6.30;2.57;;;17.20;99.90;;;;;;5132626;27;20279;-77
2023/05/05 07:06:01;;;;;;;4.07;2.20;;;17.50;99.90;;;;;;5132513;27;20682;-77
2023/05/05 07:10:00;;;;;;;4.17;2.20;;;17.70;99.90;;;;;;5152734;27;20654;-77
2023/05/05 07:13:58;;;;;;;4.00;2.40;;;18.00;99.90;;;;;;5132446;27;20275;-77
2023/05/05 07:16:25;;;;;;;5.57;1.97;;;18.20;99.90;;;;;;5131659;28;20665;-77
2023/05/05 07:18:51;;;;;;;2.63;2.40;;;18.40;99.90;;;;;;5129055;28;20287;-77
2023/05/05 07:21:17;;;;;;;6.83;2.10;;;18.50;99.90;;;;;;5131393;27;20268;-76
2023/05/05 07:23:45;;;;;;;2.97;2.67;;;18.60;99.90;;;;;;5130240;28;20176;-77
2023/05/05 07:26:10;;;;;;;4.30;1.80;;;18.80;99.90;;;;;;5131487;27;20641;-76
2023/05/05 07:28:36;;;;;;;3.93;1.70;;;19.00;99.90;;;;;;5131540;27;20186;-76
2023/05/05 07:31:02;;;;;;;3.10;1.80;;;19.10;99.90;;;;;;5129988;28;20237;-77
2023/05/05 07:33:27;;;;;;;4.10;2.00;;;19.20;99.90;;;;;;5131401;27;20203;-76
2023/05/05 07:35:56;;;;;;;5.23;2.03;;;19.20;99.90;;;;;;5131396;27;20223;-77
2023/05/05 07:38:24;;;;;;;5.63;2.17;;;19.30;99.90;;;;;;5130395;28;20254;-77
2023/05/05 07:40:49;;;;;;;2.50;2.00;;;19.40;99.90;;;;;;5131121;27;20165;-77
2023/05/05 07:43:15;;;;;;;2.00;1.80;;;19.60;99.90;;;;;;5129933;28;20186;-77
2023/05/05 07:45:40;;;;;;;6.63;2.27;;;19.60;99.90;;;;;;5131423;27;20179;-77
2023/05/05 07:48:06;;;;;;;3.40;2.07;;;19.80;99.90;;;;;;5131055;27;20324;-77
2023/05/05 07:50:32;;;;;;;2.77;2.10;;;19.90;99.90;;;;;;5131002;27;20543;-77
2023/05/05 07:52:57;;;;;;;3.50;1.93;;;20.20;99.90;;;;;;5131104;27;20209;-77
2023/05/05 07:55:23;;;;;;;4.90;2.40;;;20.70;99.90;;;;;;5131327;27;20171;-77
2023/05/05 07:57:49;;;;;;;5.17;2.47;;;21.30;99.90;;;;;;5131121;27;20187;-77
2023/05/05 08:00:15;;;;;;;5.23;2.20;;;21.80;99.90;;;;;;5131083;27;20178;-77
2023/05/05 08:02:41;;;;;;;4.57;2.10;;;22.30;99.90;;;;;;5129761;28;20179;-78
2023/05/05 08:05:07;;;;;;;2.27;1.93;;;22.60;99.60;;;;;;5131702;27;20201;-78
2023/05/05 08:07:32;;;;;;;3.43;2.00;;;22.90;99.90;;;;;;5132281;27;20201;-78
2023/05/05 08:09:58;;;;;;;4.27;1.90;;;23.30;98.30;;;;;;5130576;28;20235;-78
2023/05/05 08:12:24;;;;;;;2.97;2.10;;;23.70;95.20;;;;;;5132640;28;20204;-78
2023/05/05 08:14:50;;;;;;;3.20;2.10;;;23.80;94.00;;;;;;5132911;27;20517;-78
2023/05/05 08:17:15;;;;;;;2.67;2.07;;;23.60;94.00;;;;;;5131654;27;20187;-77
2023/05/05 08:19:41;;;;;;;2.37;1.67;;;23.60;93.00;;;;;;5131863;27;20627;-79
2023/05/05 08:22:06;;;;;;;5.10;2.23;;;24.10;92.80;;;;;;5131674;27;20175;-78
2023/05/05 08:24:32;;;;;;;3.27;1.80;;;24.20;93.30;;;;;;5122175;27;20200;-78
2023/05/05 08:26:58;;;;;;;2.20;1.97;;;24.30;91.00;;;;;;5121599;28;20570;-78
2023/05/05 08:29:23;;;;;;;4.20;1.77;;;24.20;91.40;;;;;;5126766;28;20525;-78
2023/05/05 08:31:49;;;;;;;6.40;2.07;;;24.20;92.00;;;;;;5120063;28;20189;-78
2023/05/05 08:34:15;;;;;;;2.20;2.00;;;24.20;91.40;;;;;;5118141;28;20168;-78
2023/05/05 08:36:40;;;;;;;4.20;1.93;;;23.60;90.70;;;;;;5118313;28;20170;-79
2023/05/05 08:39:06;;;;;;;2.23;2.00;;;23.40;91.80;;;;;;5118670;28;20248;-78
2023/05/05 08:41:32;;;;;;;3.40;1.87;;;23.80;92.80;;;;;;5117940;28;20196;-78
2023/05/05 08:43:58;;;;;;;2.33;1.87;;;24.50;90.60;;;;;;5115863;28;20178;-78
2023/05/05 08:46:25;;;;;;;5.23;1.97;;;25.30;90.60;;;;;;5117100;28;20186;-78
2023/05/05 08:48:54;;;;;;;2.23;2.03;;;25.60;91.00;;;;;;5117243;28;20254;-78
2023/05/05 08:51:20;;;;;;;5.33;2.90;;;25.80;90.70;;;;;;5116934;28;20167;-78
2023/05/05 08:54:00;;;;;;;5.53;2.93;;;25.50;90.20;;;;;;5117226;27;20202;-78
2023/05/05 08:56:35;;;;;;;5.13;1.70;;;25.60;90.10;;;;;;5116262;28;20536;-78
2023/05/05 08:59:01;;;;;;;3.87;2.30;;;24.90;90.50;;;;;;5117328;28;20165;-78
2023/05/05 09:01:28;;;;;;;2.77;2.10;;;25.20;91.50;;;;;;5115821;28;20171;-78
2023/05/05 09:03:56;;;;;;;3.67;2.00;;;25.60;86.70;;;;;;5116247;28;20214;-78
2023/05/05 09:06:24;;;;;;;3.27;2.13;;;25.30;90.30;;;;;;5117562;28;20181;-78
2023/05/05 09:08:50;;;;;;;3.03;2.10;;;25.50;84.80;;;;;;5117566;28;20621;-78
2023/05/05 09:11:16;;;;;;;2.63;2.20;;;25.40;86.20;;;;;;5117267;28;20187;-78
2023/05/05 09:13:42;;;;;;;6.87;2.00;;;25.50;85.90;;;;;;5117293;28;20278;-78
2023/05/05 09:16:08;;;;;;;2.50;1.83;;;25.50;86.60;;;;;;5117846;28;20173;-78
2023/05/05 09:18:36;;;;;;;3.23;1.53;;;25.80;85.30;;;;;;5118042;28;20188;-79
2023/05/05 09:21:18;;;;;;;2.83;2.20;;;25.70;83.70;;;;;;5118379;28;20626;-78
2023/05/05 09:24:07;;;;;;;7.53;2.00;;;25.50;81.70;;;;;;5118531;28;20156;-78
2023/05/05 09:26:35;;;;;;;1.80;1.70;;;25.60;83.50;;;;;;5119118;28;20160;-78
2023/05/05 09:29:02;;;;;;;2.47;1.77;;;25.50;83.90;;;;;;5118701;28;20589;-78
2023/05/05 09:31:32;;;;;;;2.33;1.97;;;25.30;85.90;;;;;;5118123;28;20164;-78
2023/05/05 09:33:59;;;;;;;2.37;1.67;;;25.10;81.90;;;;;;5118029;28;20176;-78
2023/05/05 09:36:46;;;;;;;5.07;2.00;;;24.50;83.10;;;;;;5117047;28;20178;-78
2023/05/05 09:39:16;;;;;;;4.20;2.10;;;23.90;84.70;;;;;;5115563;28;20184;-78
2023/05/05 09:41:43;;;;;;;4.37;2.30;;;24.20;91.10;;;;;;5117188;28;20196;-79
2023/05/05 09:44:10;;;;;;;3.73;2.20;;;24.40;87.40;;;;;;5126774;28;20167;-77
2023/05/05 09:46:36;;;;;;;3.40;2.00;;;;;;;;;;5128360;28;20168;-78
2023/05/05 09:49:16;;;;;;;4.70;1.87;;;25.40;84.80;;;;;;5118837;28;20168;-78
2023/05/05 09:51:45;;;;;;;2.23;1.87;;;25.80;85.90;;;;;;5118005;28;20186;-78
2023/05/05 09:54:23;;;;;;;3.10;1.83;;;26.10;86.30;;;;;;5117649;28;20168;-77
2023/05/05 09:56:50;;;;;;;6.63;1.73;;;26.20;88.30;;;;;;5116975;28;20312;-78
2023/05/05 09:59:15;;;;;;;2.40;1.97;;;26.40;84.90;;;;;;5117272;28;20594;-78
2023/05/05 10:01:42;;;;;;;3.07;1.73;;;26.60;90.10;;;;;;5117827;28;20201;-78
2023/05/05 10:04:28;;;;;;;5.50;2.10;;;26.20;88.10;;;;;;5117081;28;20241;-78
2023/05/05 10:06:57;;;;;;;7.70;2.03;;;25.80;83.90;;;;;;5117982;28;20501;-78
2023/05/05 10:09:24;;;;;;;2.67;2.10;;;25.50;87.10;;;;;;5116219;28;20172;-78
2023/05/05 10:11:51;;;;;;;4.00;2.20;;;25.30;85.10;;;;;;5116886;28;20192;-78
2023/05/05 10:14:17;;;;;;;8.17;2.53;;;25.10;82.90;;;;;;5116075;28;20184;-78
2023/05/05 10:16:48;;;;;;;2.63;2.10;;;24.30;83.30;;;;;;5116946;28;20539;-78
2023/05/05 10:19:15;;;;;;;2.57;2.00;;;23.60;85.80;;;;;;5117434;28;20172;-78
2023/05/05 10:21:52;;;;;;;2.47;1.93;;;23.90;90.20;;;;;;5115425;28;20176;-78
2023/05/05 10:24:40;;;;;;;2.90;2.00;;;23.90;89.30;;;;;;5116524;28;20157;-78
2023/05/05 10:27:18;;;;;;;5.07;1.90;;;23.40;91.40;;;;;;5115653;28;20679;-78
2023/05/05 10:30:05;;;;;;;5.10;2.33;;;23.80;91.90;;;;;;5116532;28;20601;-79
2023/05/05 10:32:46;;;;;;;5.00;1.90;;;24.10;93.00;;;;;;5114787;28;20192;-78
2023/05/05 10:35:19;;;;;;;5.10;2.27;;;24.20;86.80;;;;;;5116671;28;20151;-78
2023/05/05 10:37:45;;;;;;;2.87;2.40;;;24.00;90.70;;;;;;5117663;28;20185;-78
2023/05/05 10:40:12;;;;;;;4.53;2.03;;;24.10;91.50;;;;;;5116013;28;20183;-78
2023/05/05 10:42:39;;;;;;;2.80;2.07;;;24.70;90.50;;;;;;5117129;28;20680;-77
2023/05/05 10:45:06;;;;;;;1.93;1.83;;;25.10;88.00;;;;;;5114418;28;20164;-77
2023/05/05 10:47:33;;;;;;;4.00;2.50;;;25.40;91.70;;;;;;5114025;28;20192;-77
2023/05/05 10:50:02;;;;;;;5.90;2.23;;;25.20;90.80;;;;;;5113935;28;20179;-78
2023/05/05 10:52:42;;;;;;;4.83;2.07;;;25.00;90.10;;;;;;5114196;28;20541;-78
2023/05/05 10:55:11;;;;;;;3.17;2.10;;;24.20;85.80;;;;;;5112825;28;20266;-77
2023/05/05 10:57:40;;;;;;;3.63;2.37;;;23.70;88.00;;;;;;5114154;28;20192;-77
2023/05/05 11:00:07;;;;;;;7.20;2.53;;;23.60;91.40;;;;;;5113723;28;20175;-77
2023/05/05 11:02:34;;;;;;;2.17;1.97;;;23.30;90.60;;;;;;5113852;28;20259;-76
2023/05/05 11:05:21;;;;;;;2.40;2.20;;;23.10;89.30;;;;;;5113754;28;20505;-76
2023/05/05 11:07:49;;;;;;;7.00;2.20;;;23.10;90.00;;;;;;5112547;28;20216;-77
2023/05/05 11:10:17;;;;;;;2.50;2.00;;;23.30;93.00;;;;;;5113540;28;20262;-76
2023/05/05 11:12:58;;;;;;;4.20;2.60;;;24.10;90.80;;;;;;5112320;28;20211;-77
2023/05/05 11:15:30;;;;;;;3.63;2.47;;;24.20;89.00;;;;;;5113724;28;20171;-77
2023/05/05 11:17:58;;;;;;;3.17;2.30;;;24.20;87.90;;;;;;5113699;28;20189;-77
2023/05/05 11:20:38;;;;;;;5.27;2.13;;;24.50;89.70;;;;;;5113448;28;20177;-76
2023/05/05 11:23:04;;;;;;;5.57;2.13;;;24.90;92.40;;;;;;5113032;28;20178;-77
2023/05/05 11:25:39;;;;;;;2.73;2.30;;;25.20;91.70;;;;;;5113890;28;20190;-78
2023/05/05 11:28:13;;;;;;;2.77;2.10;;;25.70;92.50;;;;;;5112228;28;20678;-77
2023/05/05 11:30:54;;;;;;;2.20;2.00;;;26.10;88.20;;;;;;5113598;28;20681;-77
2023/05/05 11:33:34;;;;;;;3.00;2.07;;;26.30;86.20;;;;;;5113370;28;20209;-77
2023/05/05 11:36:07;;;;;;;4.60;2.27;;;26.40;83.00;;;;;;5113454;28;20174;-77
2023/05/05 11:38:54;;;;;;;3.67;2.27;;;26.50;86.20;;;;;;5113709;28;20186;-76
2023/05/05 11:41:44;;;;;;;4.63;2.50;;;26.60;82.40;;;;;;5113502;28;20225;-76
2023/05/05 11:44:17;;;;;;;5.10;2.50;;;26.90;82.50;;;;;;5113751;28;20163;-77
2023/05/05 11:46:51;;;;;;;4.93;2.80;;;27.30;84.30;;;;;;5113605;28;20153;-77
2023/05/05 11:49:37;;;;;;;3.00;2.33;;;27.30;80.00;;;;;;5113819;28;20571;-76
2023/05/05 11:52:02;;;;;;;2.70;2.50;;;27.30;82.50;;;;;;5113654;28;20242;-77
2023/05/05 11:54:28;;;;;;;3.40;2.60;;;27.10;79.50;;;;;;5113573;28;20694;-75
2023/05/05 11:56:57;;;;;;;4.23;2.50;;;27.10;81.20;;;;;;5113437;28;20171;-75
2023/05/05 11:59:23;;;;;;;4.03;2.50;;;26.90;79.20;;;;;;5114838;28;20621;-76
2023/05/05 12:01:49;;;;;;;5.80;2.93;;;26.00;84.60;;;;;;5116865;28;20174;-77
2023/05/05 12:04:15;;;;;;;3.00;2.70;;;25.20;82.50;;;;;;5117165;28;20177;-77
2023/05/05 12:06:42;;;;;;;3.83;2.73;;;24.70;85.30;;;;;;5115665;28;20383;-77
2023/05/05 12:09:14;;;;;;;4.17;2.50;;;24.50;83.90;;;;;;5116843;28;20653;-76
2023/05/05 12:11:54;;;;;;;4.03;2.80;;;25.10;85.90;;;;;;5116573;28;20160;-76
2023/05/05 12:14:20;;;;;;;3.37;2.60;;;26.00;83.70;;;;;;5116752;28;20498;-76
2023/05/05 12:16:57;;;;;;;3.30;2.43;;;26.60;83.60;;;;;;5117103;28;20175;-76
2023/05/05 12:19:23;;;;;;;5.57;2.40;;;27.00;84.10;;;;;;5116616;28;20175;-75
2023/05/05 12:21:49;;;;;;;5.30;2.70;;;27.40;81.10;;;;;;5116509;27;20172;-76
2023/05/05 12:24:15;;;;;;;6.50;2.50;;;27.60;85.30;;;;;;5116871;28;20170;-76
2023/05/05 12:26:40;;;;;;;7.70;2.57;;;27.80;79.00;;;;;;5116568;28;20166;-76
2023/05/05 12:29:06;;;;;;;2.43;2.20;;;27.90;75.40;;;;;;5115090;28;20175;-76
2023/05/05 12:31:36;;;;;;;4.10;2.00;;;28.00;77.80;;;;;;5116220;28;20172;-76
2023/05/05 12:34:03;;;;;;;3.43;2.40;;;28.20;73.70;;;;;;5116462;28;20290;-76
2023/05/05 12:36:30;;;;;;;3.07;2.00;;;28.60;71.90;;;;;;5115235;28;20634;-76
2023/05/05 12:38:55;;;;;;;3.60;2.30;;;28.60;79.20;;;;;;5114874;28;20278;-76
2023/05/05 12:41:21;;;;;;;4.17;2.00;;;28.60;78.40;;;;;;5114832;28;20177;-76
2023/05/05 12:43:52;;;;;;;4.63;2.60;;;28.70;76.80;;;;;;5114872;28;20206;-76
2023/05/05 12:46:18;;;;;;;5.63;2.20;;;28.60;78.00;;;;;;5116240;28;20191;-76
2023/05/05 12:48:44;;;;;;;3.20;2.70;;;28.60;72.80;;;;;;5116006;28;20717;-76
2023/05/05 12:51:21;;;;;;;2.90;2.70;;;28.50;75.60;;;;;;5115930;28;20189;-76
2023/05/05 12:53:59;;;;;;;4.03;3.03;;;28.10;76.50;;;;;;5115857;28;20689;-76
2023/05/05 12:56:32;;;;;;;3.83;2.93;;;27.70;74.20;;;;;;5115874;28;20179;-76
2023/05/05 12:58:59;;;;;;;5.87;2.60;;;27.60;79.30;;;;;;5116137;28;20259;-77
2023/05/05 13:01:24;;;;;;;3.73;2.87;;;27.50;76.70;;;;;;5115726;28;20169;-76
2023/05/05 13:04:10;;;;;;;4.47;2.87;;;27.10;77.00;;;;;;5115965;28;20173;-77
2023/05/05 13:06:44;;;;;;;4.87;2.70;;;26.30;78.50;;;;;;5115974;28;20171;-76
2023/05/05 13:09:29;;;;;;;3.83;2.40;;;25.60;80.00;;;;;;5116067;28;20364;-78
2023/05/05 13:11:55;;;;;;;6.87;3.07;;;25.20;82.10;;;;;;5115368;28;20231;-77
2023/05/05 13:14:21;;;;;;;4.33;2.57;;;24.80;84.10;;;;;;5114434;28;20275;-76
2023/05/05 13:16:47;;;;;;;7.27;2.80;;;24.60;85.80;;;;;;5116094;28;20627;-76
2023/05/05 13:19:13;;;;;;;5.57;2.90;;;24.70;84.20;;;;;;5115601;27;20203;-76
2023/05/05 13:21:39;;;;;;;6.27;3.40;;;24.50;84.00;;;;;;5115454;28;20645;-75
2023/05/05 13:24:05;;;;;;;5.40;2.93;;;24.40;83.70;;;;;;5115715;28;20179;-77
2023/05/05 13:26:30;;;;;;;4.77;3.17;;;24.50;83.30;;;;;;5115258;28;20179;-76
2023/05/05 13:28:56;;;;;;;7.17;3.63;;;24.70;81.80;;;;;;5113855;28;20191;-77
2023/05/05 13:31:22;;;;;;;5.07;2.80;;;24.70;81.20;;;;;;5115079;28;20172;-77
2023/05/05 13:33:48;;;;;;;14.13;4.10;;;24.70;81.40;;;;;;5115074;28;20205;-78
2023/05/05 13:36:13;;;;;;;12.20;2.87;;;24.90;85.70;;;;;;5115164;28;20507;-77
2023/05/05 13:38:39;;;;;;;7.27;3.07;;;25.30;83.10;;;;;;5113739;28;20247;-76
2023/05/05 13:41:05;;;;;;;8.43;2.80;;;25.80;84.30;;;;;;5114963;28;20171;-77
2023/05/05 13:43:30;;;;;;;4.43;2.60;;;25.70;83.10;;;;;;5115058;27;20170;-77
2023/05/05 13:45:56;;;;;;;5.47;2.30;;;25.60;84.20;;;;;;5115320;28;20580;-77
2023/05/05 13:48:22;;;;;;;10.07;3.00;;;26.00;82.10;;;;;;5114766;28;20191;-77
2023/05/05 13:50:48;;;;;;;3.77;2.80;;;26.00;78.20;;;;;;5114855;28;20512;-77
2023/05/05 13:53:14;;;;;;;6.43;3.03;;;26.00;79.50;;;;;;5113688;28;20197;-77
2023/05/05 13:55:43;;;;;;;4.20;2.87;;;26.10;79.00;;;;;;5115110;28;20206;-76
2023/05/05 13:58:09;;;;;;;4.03;2.27;;;26.30;82.10;;;;;;5113543;28;20194;-77
2023/05/05 14:00:36;;;;;;;7.77;3.00;;;26.60;77.30;;;;;;5114608;28;20199;-77
2023/05/05 14:03:02;;;;;;;4.17;2.90;;;26.90;77.70;;;;;;5114739;28;20625;-76
2023/05/05 14:05:28;;;;;;;5.10;2.90;;;26.90;77.30;;;;;;5114706;28;20256;-75
2023/05/05 14:07:54;;;;;;;4.53;2.77;;;26.90;75.30;;;;;;5113858;28;20195;-79
2023/05/05 14:10:20;;;;;;;6.63;3.33;;;26.80;76.90;;;;;;5114510;28;20177;-78
2023/05/05 14:12:46;;;;;;;5.20;2.77;;;26.50;77.70;;;;;;5114665;28;20211;-76
2023/05/05 14:15:12;;;;;;;8.23;2.97;;;26.00;79.50;;;;;;5114237;28;20170;-75
2023/05/05 14:17:37;;;;;;;7.30;2.90;;;25.30;79.30;;;;;;5113155;28;20282;-75
2023/05/05 14:20:04;;;;;;;6.43;3.23;;;24.90;81.20;;;;;;5114409;28;20259;-75
2023/05/05 14:22:29;;;;;;;8.33;3.23;;;24.80;81.40;;;;;;5113749;28;20533;-75
2023/05/05 14:24:55;;;;;;;4.57;3.00;;;25.30;81.40;;;;;;5114377;28;20172;-75
2023/05/05 14:27:21;;;;;;;4.80;3.03;;;26.20;84.30;;;;;;5114376;28;20211;-75
2023/05/05 14:29:47;;;;;;;4.33;2.80;;;27.00;77.30;;;;;;5114273;28;20167;-76
2023/05/05 14:32:12;;;;;;;4.13;3.23;;;27.30;74.70;;;;;;5114319;28;20198;-76
2023/05/05 14:34:38;;;;;;;5.83;3.40;;;27.20;75.20;;;;;;5114062;28;20259;-76
2023/05/05 14:37:04;;;;;;;5.80;3.10;;;27.40;75.20;;;;;;5114157;28;20224;-76
2023/05/05 14:39:29;;;;;;;10.03;3.43;;;27.60;77.10;;;;;;5113723;28;20180;-76
2023/05/05 14:41:55;;;;;;;6.10;3.77;;;27.90;75.80;;;;;;5112927;28;20184;-76
2023/05/05 14:44:21;;;;;;;5.20;3.50;;;27.40;74.60;;;;;;5113760;28;20213;-75
2023/05/05 14:46:48;;;;;;;5.00;3.00;;;27.10;76.40;;;;;;5113734;28;20176;-76
2023/05/05 14:49:13;;;;;;;4.03;2.97;;;27.00;77.40;;;;;;5113764;28;20708;-76
2023/05/05 14:51:40;;;;;;;4.30;2.93;;;27.30;80.40;;;;;;5112502;28;20177;-76
2023/05/05 14:54:06;;;;;;;5.57;2.97;;;27.40;77.30;;;;;;5113930;28;20220;-76
2023/05/05 14:56:31;;;;;;;4.60;3.10;;;27.40;79.30;;;;;;5113788;28;20177;-76
2023/05/05 14:58:57;;;;;;;3.37;2.87;;;26.90;77.80;;;;;;5112290;28;20189;-76
2023/05/05 15:01:25;;;;;;;5.27;3.27;;;26.10;77.90;;;;;;5113481;28;20169;-77
2023/05/05 15:03:52;;;;;;;4.73;2.90;;;26.00;76.60;;;;;;5113898;28;20168;-76
2023/05/05 15:06:18;;;;;;;3.33;2.40;;;25.90;76.20;;;;;;5112206;28;20183;-76
2023/05/05 15:08:44;;;;;;;4.67;3.00;;;25.60;79.60;;;;;;5112615;28;20254;-76
2023/05/05 15:11:09;;;;;;;3.33;2.97;;;25.60;79.30;;;;;;5113550;28;20587;-76
2023/05/05 15:13:38;;;;;;;3.43;2.77;;;26.20;80.50;;;;;;5113653;28;20205;-77
2023/05/05 15:16:05;;;;;;;4.70;2.80;;;26.70;77.70;;;;;;5113822;28;20160;-77
2023/05/05 15:18:31;;;;;;;4.40;2.60;;;27.00;76.00;;;;;;5114249;28;20282;-77
2023/05/05 15:20:56;;;;;;;3.03;2.70;;;27.10;75.10;;;;;;5114132;28;20521;-78
2023/05/05 15:23:22;;;;;;;3.47;2.77;;;27.10;74.90;;;;;;5114242;28;20168;-77
2023/05/05 15:25:48;;;;;;;4.30;2.60;;;26.80;77.00;;;;;;5112862;28;20171;-77
2023/05/05 15:28:13;;;;;;;7.47;2.73;;;26.40;75.20;;;;;;5113103;28;20186;-77
2023/05/05 15:30:39;;;;;;;5.77;2.67;;;25.40;76.60;;;;;;5113301;28;20594;-78
2023/05/05 15:33:05;;;;;;;6.00;3.37;;;24.70;79.50;;;;;;5114236;28;20285;-76
2023/05/05 15:35:30;;;;;;;5.03;2.90;;;23.90;82.10;;;;;;5117263;28;20166;-77
2023/05/05 15:37:56;;;;;;;7.33;2.93;;;24.00;83.10;;;;;;5116476;28;20282;-78
2023/05/05 15:40:22;;;;;;;3.50;3.00;;;24.80;81.90;;;;;;5119504;28;20171;-78
2023/05/05 15:42:48;;;;;;;4.70;2.80;;;25.70;80.00;;;;;;5119353;28;20176;-79
2023/05/05 15:45:15;;;;;;;4.03;3.07;;;26.20;77.70;;;;;;5119782;28;20208;-78
2023/05/05 15:47:41;;;;;;;7.40;3.20;;;25.70;79.60;;;;;;5118204;28;20675;-79
2023/05/05 15:50:07;;;;;;;10.57;2.73;;;25.50;79.90;;;;;;5119020;28;20183;-78
2023/05/05 15:52:33;;;;;;;3.60;3.00;;;24.80;81.10;;;;;;5117161;28;20211;-77
2023/05/05 15:54:59;;;;;;;10.07;3.03;;;24.00;82.20;;;;;;5120097;28;20178;-80
2023/05/05 15:57:24;;;;;;;3.80;3.20;;;23.70;84.20;;;;;;5118949;28;20678;-77
2023/05/05 15:59:51;;;;;;;4.37;3.00;;;23.50;85.30;;;;;;5117841;28;20179;-77
2023/05/05 16:02:17;;;;;;;8.07;3.00;;;23.30;85.70;;;;;;5118472;28;20169;-78
2023/05/05 16:04:43;;;;;;;5.10;3.63;;;23.10;86.20;;;;;;5118109;28;20262;-77
2023/05/05 16:07:09;;;;;;;7.33;4.03;;;22.70;87.80;;;;;;5117997;28;20219;-78
2023/05/05 16:09:34;;;;;;;5.57;3.60;;;22.40;90.60;;;;;;5118339;28;20763;-75
2023/05/05 16:12:01;;;;;;;9.57;4.20;;;22.00;90.20;;;;;;5118996;28;20215;-79
2023/05/05 16:14:27;;;;;;;4.57;3.77;;;21.90;90.90;;;;;;5116723;28;20632;-76
2023/05/05 16:16:53;;;;;;;5.17;3.23;;;21.70;91.50;;;;;;5116642;28;20168;-75
2023/05/05 16:19:19;;;;;;;5.40;3.20;;;21.60;90.90;;;;;;5118197;28;20240;-78
2023/05/05 16:21:45;;;;;;;5.87;3.40;;;21.60;91.30;;;;;;5118844;28;20209;-78
2023/05/05 16:24:15;;;;;;;4.43;3.17;;;21.50;91.70;;;;;;5116042;28;20271;-77
2023/05/05 16:26:43;;;;;;;4.77;3.40;;;21.50;92.10;;;;;;5117866;28;20207;-78
2023/05/05 16:29:08;;;;;;;3.60;3.30;;;21.50;92.10;;;;;;5118036;28;20587;-77
2023/05/05 16:31:34;;;;;;;6.30;3.17;;;21.40;92.90;;;;;;5117098;28;20172;-77
2023/05/05 16:34:01;;;;;;;6.37;3.67;;;21.40;92.50;;;;;;5116301;28;20203;-77
2023/05/05 16:36:26;;;;;;;7.70;3.93;;;21.40;93.40;;;;;;5116813;28;20253;-77
2023/05/05 16:38:52;;;;;;;10.87;3.83;;;21.40;94.10;;;;;;5115748;28;20212;-76
2023/05/05 16:41:18;;;;;;;4.07;3.67;;;21.40;93.70;;;;;;5113297;28;20262;-77
2023/05/05 16:43:45;;;;;;;7.90;3.97;;;21.20;94.30;;;;;;5115702;28;20178;-77
2023/05/05 16:46:11;;;;;;;8.07;3.87;;;21.00;94.80;;;;;;5113951;28;20696;-77
2023/05/05 16:48:36;;;;;;;5.53;4.00;;;20.90;95.50;;;;;;5115547;28;20238;-77
2023/05/05 16:51:02;;;;;;;6.37;4.07;;;20.80;95.60;;;;;;5115382;28;20172;-77
2023/05/05 16:53:28;;;;;;;5.70;4.27;;;20.80;96.40;;;;;;5115318;28;20676;-77
2023/05/05 16:55:54;;;;;;;3.70;3.40;;;20.70;96.70;;;;;;5115952;28;20172;-76
2023/05/05 16:58:24;;;;;;;26.30;20.87;;;20.70;97.30;;;;;;5115863;28;20191;-77
2023/05/05 17:00:50;;;;;;;8.40;5.97;;;20.60;96.30;;;;;;5115861;28;20248;-77
2023/05/05 17:03:17;;;;;;;47.23;36.23;;;20.60;96.60;;;;;;5114924;28;20270;-77
2023/05/05 17:05:45;;;;;;;43.03;32.23;;;20.50;96.60;;;;;;5117347;28;20180;-78
2023/05/05 17:08:13;;;;;;;1294.80;751.17;;;20.50;96.20;;;;;;5118640;28;20214;-78
2023/05/05 17:10:45;;;;;;;283.13;220.97;;;20.40;96.70;;;;;;5117562;28;20175;-77
2023/05/05 17:13:12;;;;;;;17.87;14.07;;;20.40;97.00;;;;;;5116249;28;20199;-77
2023/05/05 17:15:38;;;;;;;390.23;303.53;;;20.20;97.10;;;;;;5118229;28;20172;-78
